sensor_id;sensor_type;location;lat;lon;timestamp;P1;durP1;ratioP1;P2;durP2;ratioP2
49177;SDS011;35016;55.674;37.468;2023-09-19T00:00:49;15.43;;;9.15;;
49177;SDS011;35016;55.674;37.468;2023-09-19T00:03:16;14.40;;;8.60;;
49177;SDS011;35016;55.674;37.468;2023-09-19T00:05:44;14.40;;;8.68;;
49177;SDS011;35016;55.674;37.468;2023-09-19T00:08:13;12.48;;;8.80;;
49177;SDS011;35016;55.674;37.468;2023-09-19T00:10:41;12.48;;;7.55;;
49177;SDS011;35016;55.674;37.468;2023-09-19T00:13:09;13.48;;;8.43;;
49177;SDS011;35016;55.674;37.468;2023-09-19T00:15:42;13.75;;;8.80;;
49177;SDS011;35016;55.674;37.468;2023-09-19T00:18:18;13.10;;;7.78;;
49177;SDS011;35016;55.674;37.468;2023-09-19T00:20:48;16.23;;;9.85;;
49177;SDS011;35016;55.674;37.468;2023-09-19T00:23:16;13.18;;;8.23;;
49177;SDS011;35016;55.674;37.468;2023-09-19T00:25:43;15.15;;;8.50;;
49177;SDS011;35016;55.674;37.468;2023-09-19T00:28:12;14.02;;;9.13;;
49177;SDS011;35016;55.674;37.468;2023-09-19T00:30:42;14.57;;;9.68;;
49177;SDS011;35016;55.674;37.468;2023-09-19T00:33:10;13.38;;;9.63;;
49177;SDS011;35016;55.674;37.468;2023-09-19T00:35:47;13.88;;;8.10;;
49177;SDS011;35016;55.674;37.468;2023-09-19T00:38:14;14.05;;;9.68;;
49177;SDS011;35016;55.674;37.468;2023-09-19T00:40:48;15.68;;;10.43;;
49177;SDS011;35016;55.674;37.468;2023-09-19T00:43:16;16.10;;;10.02;;
49177;SDS011;35016;55.674;37.468;2023-09-19T00:45:44;16.30;;;9.45;;
49177;SDS011;35016;55.674;37.468;2023-09-19T00:48:15;14.73;;;9.82;;
49177;SDS011;35016;55.674;37.468;2023-09-19T00:50:44;14.57;;;10.23;;
49177;SDS011;35016;55.674;37.468;2023-09-19T00:53:19;17.63;;;10.00;;
49177;SDS011;35016;55.674;37.468;2023-09-19T00:59:52;13.63;;;9.73;;
49177;SDS011;35016;55.674;37.468;2023-09-19T01:02:21;14.35;;;9.35;;
49177;SDS011;35016;55.674;37.468;2023-09-19T01:04:49;17.10;;;10.45;;
49177;SDS011;35016;55.674;37.468;2023-09-19T01:07:17;18.50;;;11.35;;
49177;SDS011;35016;55.674;37.468;2023-09-19T01:09:45;14.00;;;9.52;;
49177;SDS011;35016;55.674;37.468;2023-09-19T01:12:12;15.00;;;10.75;;
49177;SDS011;35016;55.674;37.468;2023-09-19T01:14:54;16.52;;;12.13;;
49177;SDS011;35016;55.674;37.468;2023-09-19T01:17:31;17.38;;;11.85;;
49177;SDS011;35016;55.674;37.468;2023-09-19T01:20:17;19.38;;;13.43;;
49177;SDS011;35016;55.674;37.468;2023-09-19T01:28:30;19.13;;;13.88;;
49177;SDS011;35016;55.674;37.468;2023-09-19T01:31:21;20.35;;;15.73;;
49177;SDS011;35016;55.674;37.468;2023-09-19T01:33:54;23.35;;;15.77;;
49177;SDS011;35016;55.674;37.468;2023-09-19T01:36:24;21.23;;;15.60;;
49177;SDS011;35016;55.674;37.468;2023-09-19T01:39:07;19.52;;;15.38;;
49177;SDS011;35016;55.674;37.468;2023-09-19T01:44:31;23.38;;;15.63;;
49177;SDS011;35016;55.674;37.468;2023-09-19T01:47:26;19.13;;;14.77;;
49177;SDS011;35016;55.674;37.468;2023-09-19T01:52:30;21.38;;;15.73;;
49177;SDS011;35016;55.674;37.468;2023-09-19T01:55:06;19.50;;;15.23;;
49177;SDS011;35016;55.674;37.468;2023-09-19T01:58:00;19.65;;;14.80;;
49177;SDS011;35016;55.674;37.468;2023-09-19T02:00:36;18.40;;;14.02;;
49177;SDS011;35016;55.674;37.468;2023-09-19T02:03:04;18.52;;;14.90;;
49177;SDS011;35016;55.674;37.468;2023-09-19T02:05:32;21.63;;;16.05;;
49177;SDS011;35016;55.674;37.468;2023-09-19T02:07:59;22.08;;;16.00;;
49177;SDS011;35016;55.674;37.468;2023-09-19T02:10:27;21.63;;;15.15;;
49177;SDS011;35016;55.674;37.468;2023-09-19T02:12:54;20.05;;;15.50;;
49177;SDS011;35016;55.674;37.468;2023-09-19T02:15:22;22.60;;;16.65;;
49177;SDS011;35016;55.674;37.468;2023-09-19T02:17:49;20.27;;;14.68;;
49177;SDS011;35016;55.674;37.468;2023-09-19T02:20:17;20.20;;;17.35;;
49177;SDS011;35016;55.674;37.468;2023-09-19T02:22:46;19.95;;;15.82;;
49177;SDS011;35016;55.674;37.468;2023-09-19T02:25:36;19.95;;;15.48;;
49177;SDS011;35016;55.674;37.468;2023-09-19T02:28:06;21.92;;;16.23;;
49177;SDS011;35016;55.674;37.468;2023-09-19T02:30:36;23.30;;;18.27;;
49177;SDS011;35016;55.674;37.468;2023-09-19T02:33:03;22.17;;;17.73;;
49177;SDS011;35016;55.674;37.468;2023-09-19T02:35:32;23.20;;;18.50;;
49177;SDS011;35016;55.674;37.468;2023-09-19T02:38:02;21.63;;;17.60;;
49177;SDS011;35016;55.674;37.468;2023-09-19T02:40:33;28.02;;;19.63;;
49177;SDS011;35016;55.674;37.468;2023-09-19T02:43:03;25.98;;;19.25;;
49177;SDS011;35016;55.674;37.468;2023-09-19T02:45:31;28.17;;;20.60;;
49177;SDS011;35016;55.674;37.468;2023-09-19T02:48:00;25.70;;;21.23;;
49177;SDS011;35016;55.674;37.468;2023-09-19T02:50:29;27.00;;;23.13;;
49177;SDS011;35016;55.674;37.468;2023-09-19T02:52:57;23.10;;;20.10;;
49177;SDS011;35016;55.674;37.468;2023-09-19T02:55:24;28.98;;;22.77;;
49177;SDS011;35016;55.674;37.468;2023-09-19T02:57:52;28.08;;;23.08;;
49177;SDS011;35016;55.674;37.468;2023-09-19T03:00:24;26.67;;;21.17;;
49177;SDS011;35016;55.674;37.468;2023-09-19T03:02:53;31.40;;;24.83;;
49177;SDS011;35016;55.674;37.468;2023-09-19T03:05:22;32.97;;;22.75;;
49177;SDS011;35016;55.674;37.468;2023-09-19T03:07:51;27.55;;;23.05;;
49177;SDS011;35016;55.674;37.468;2023-09-19T03:10:20;29.80;;;22.30;;
49177;SDS011;35016;55.674;37.468;2023-09-19T03:12:48;31.15;;;24.25;;
49177;SDS011;35016;55.674;37.468;2023-09-19T03:15:17;30.25;;;24.35;;
49177;SDS011;35016;55.674;37.468;2023-09-19T03:17:47;30.00;;;24.25;;
49177;SDS011;35016;55.674;37.468;2023-09-19T03:20:19;31.30;;;25.50;;
49177;SDS011;35016;55.674;37.468;2023-09-19T03:22:50;29.38;;;24.75;;
49177;SDS011;35016;55.674;37.468;2023-09-19T03:25:18;35.47;;;22.83;;
49177;SDS011;35016;55.674;37.468;2023-09-19T03:27:51;30.73;;;26.05;;
49177;SDS011;35016;55.674;37.468;2023-09-19T03:30:20;30.15;;;24.70;;
49177;SDS011;35016;55.674;37.468;2023-09-19T03:32:48;30.45;;;23.08;;
49177;SDS011;35016;55.674;37.468;2023-09-19T03:35:18;35.10;;;24.55;;
49177;SDS011;35016;55.674;37.468;2023-09-19T03:37:46;31.95;;;24.65;;
49177;SDS011;35016;55.674;37.468;2023-09-19T03:40:14;34.47;;;24.65;;
49177;SDS011;35016;55.674;37.468;2023-09-19T03:42:43;32.05;;;24.58;;
49177;SDS011;35016;55.674;37.468;2023-09-19T03:45:12;31.45;;;24.30;;
49177;SDS011;35016;55.674;37.468;2023-09-19T03:47:45;31.27;;;24.38;;
49177;SDS011;35016;55.674;37.468;2023-09-19T03:50:18;32.67;;;23.58;;
49177;SDS011;35016;55.674;37.468;2023-09-19T03:52:45;31.98;;;22.83;;
49177;SDS011;35016;55.674;37.468;2023-09-19T03:55:12;30.75;;;21.52;;
49177;SDS011;35016;55.674;37.468;2023-09-19T03:57:40;32.53;;;24.00;;
49177;SDS011;35016;55.674;37.468;2023-09-19T04:00:09;32.67;;;22.92;;
49177;SDS011;35016;55.674;37.468;2023-09-19T04:02:41;29.07;;;22.43;;
49177;SDS011;35016;55.674;37.468;2023-09-19T04:05:09;28.60;;;22.73;;
49177;SDS011;35016;55.674;37.468;2023-09-19T04:07:37;29.88;;;24.25;;
49177;SDS011;35016;55.674;37.468;2023-09-19T04:10:05;27.20;;;21.10;;
49177;SDS011;35016;55.674;37.468;2023-09-19T04:12:35;25.50;;;20.98;;
49177;SDS011;35016;55.674;37.468;2023-09-19T04:15:02;29.30;;;21.00;;
49177;SDS011;35016;55.674;37.468;2023-09-19T04:17:31;25.98;;;21.90;;
49177;SDS011;35016;55.674;37.468;2023-09-19T04:20:00;28.55;;;22.77;;
49177;SDS011;35016;55.674;37.468;2023-09-19T04:22:29;32.85;;;22.55;;
49177;SDS011;35016;55.674;37.468;2023-09-19T04:24:56;31.70;;;22.63;;
49177;SDS011;35016;55.674;37.468;2023-09-19T04:27:23;32.03;;;23.83;;
49177;SDS011;35016;55.674;37.468;2023-09-19T04:29:51;28.98;;;23.27;;
49177;SDS011;35016;55.674;37.468;2023-09-19T04:32:20;28.67;;;23.15;;
49177;SDS011;35016;55.674;37.468;2023-09-19T04:34:48;28.30;;;21.85;;
49177;SDS011;35016;55.674;37.468;2023-09-19T04:37:22;26.23;;;21.95;;
49177;SDS011;35016;55.674;37.468;2023-09-19T04:39:49;29.55;;;21.55;;
49177;SDS011;35016;55.674;37.468;2023-09-19T04:42:16;32.13;;;22.75;;
49177;SDS011;35016;55.674;37.468;2023-09-19T04:44:44;29.90;;;20.58;;
49177;SDS011;35016;55.674;37.468;2023-09-19T04:47:12;25.35;;;18.38;;
49177;SDS011;35016;55.674;37.468;2023-09-19T04:49:39;27.50;;;20.73;;
49177;SDS011;35016;55.674;37.468;2023-09-19T04:52:06;27.48;;;19.33;;
49177;SDS011;35016;55.674;37.468;2023-09-19T04:54:34;23.90;;;18.80;;
49177;SDS011;35016;55.674;37.468;2023-09-19T04:57:01;24.63;;;18.13;;
49177;SDS011;35016;55.674;37.468;2023-09-19T04:59:28;32.17;;;21.80;;
49177;SDS011;35016;55.674;37.468;2023-09-19T05:01:55;27.73;;;19.42;;
49177;SDS011;35016;55.674;37.468;2023-09-19T05:04:22;31.42;;;21.40;;
49177;SDS011;35016;55.674;37.468;2023-09-19T05:06:50;27.30;;;18.60;;
49177;SDS011;35016;55.674;37.468;2023-09-19T05:09:17;29.15;;;20.13;;
49177;SDS011;35016;55.674;37.468;2023-09-19T05:11:46;24.83;;;19.77;;
49177;SDS011;35016;55.674;37.468;2023-09-19T05:14:14;23.17;;;16.17;;
49177;SDS011;35016;55.674;37.468;2023-09-19T05:16:41;26.55;;;17.20;;
49177;SDS011;35016;55.674;37.468;2023-09-19T05:19:08;25.23;;;17.77;;
49177;SDS011;35016;55.674;37.468;2023-09-19T05:21:38;23.00;;;16.85;;
49177;SDS011;35016;55.674;37.468;2023-09-19T05:24:06;24.70;;;17.17;;
49177;SDS011;35016;55.674;37.468;2023-09-19T05:26:36;24.83;;;15.98;;
49177;SDS011;35016;55.674;37.468;2023-09-19T05:29:04;22.08;;;17.63;;
49177;SDS011;35016;55.674;37.468;2023-09-19T05:31:31;22.00;;;15.65;;
49177;SDS011;35016;55.674;37.468;2023-09-19T05:33:59;21.55;;;15.93;;
49177;SDS011;35016;55.674;37.468;2023-09-19T05:36:28;23.10;;;15.98;;
49177;SDS011;35016;55.674;37.468;2023-09-19T05:38:56;20.13;;;15.23;;
49177;SDS011;35016;55.674;37.468;2023-09-19T05:41:23;20.98;;;15.02;;
49177;SDS011;35016;55.674;37.468;2023-09-19T05:43:51;19.95;;;14.85;;
49177;SDS011;35016;55.674;37.468;2023-09-19T05:46:18;19.13;;;14.68;;
49177;SDS011;35016;55.674;37.468;2023-09-19T05:48:46;18.77;;;13.20;;
49177;SDS011;35016;55.674;37.468;2023-09-19T05:51:14;21.27;;;16.05;;
49177;SDS011;35016;55.674;37.468;2023-09-19T05:53:41;17.10;;;12.77;;
49177;SDS011;35016;55.674;37.468;2023-09-19T05:56:10;22.17;;;13.27;;
49177;SDS011;35016;55.674;37.468;2023-09-19T05:58:38;15.43;;;12.32;;
49177;SDS011;35016;55.674;37.468;2023-09-19T06:01:05;20.00;;;13.20;;
49177;SDS011;35016;55.674;37.468;2023-09-19T06:03:34;18.35;;;13.55;;
49177;SDS011;35016;55.674;37.468;2023-09-19T06:06:02;17.55;;;13.13;;
49177;SDS011;35016;55.674;37.468;2023-09-19T06:08:29;18.65;;;12.48;;
49177;SDS011;35016;55.674;37.468;2023-09-19T06:10:58;16.67;;;11.50;;
49177;SDS011;35016;55.674;37.468;2023-09-19T06:13:29;13.88;;;11.60;;
49177;SDS011;35016;55.674;37.468;2023-09-19T06:15:56;16.25;;;10.77;;
49177;SDS011;35016;55.674;37.468;2023-09-19T06:18:25;16.52;;;11.13;;
49177;SDS011;35016;55.674;37.468;2023-09-19T06:20:53;16.13;;;12.10;;
49177;SDS011;35016;55.674;37.468;2023-09-19T06:23:20;15.30;;;11.82;;
49177;SDS011;35016;55.674;37.468;2023-09-19T06:25:47;16.27;;;12.57;;
49177;SDS011;35016;55.674;37.468;2023-09-19T06:28:15;17.42;;;13.38;;
49177;SDS011;35016;55.674;37.468;2023-09-19T06:30:45;17.48;;;12.95;;
49177;SDS011;35016;55.674;37.468;2023-09-19T06:33:12;14.55;;;11.57;;
49177;SDS011;35016;55.674;37.468;2023-09-19T06:35:42;15.52;;;12.10;;
49177;SDS011;35016;55.674;37.468;2023-09-19T06:38:13;17.80;;;13.15;;
49177;SDS011;35016;55.674;37.468;2023-09-19T06:40:42;16.27;;;12.40;;
49177;SDS011;35016;55.674;37.468;2023-09-19T06:43:10;19.27;;;13.80;;
49177;SDS011;35016;55.674;37.468;2023-09-19T06:45:37;16.55;;;13.80;;
49177;SDS011;35016;55.674;37.468;2023-09-19T06:48:05;16.00;;;13.40;;
49177;SDS011;35016;55.674;37.468;2023-09-19T06:50:32;16.63;;;12.25;;
49177;SDS011;35016;55.674;37.468;2023-09-19T06:53:01;16.73;;;13.82;;
49177;SDS011;35016;55.674;37.468;2023-09-19T06:55:28;17.70;;;13.32;;
49177;SDS011;35016;55.674;37.468;2023-09-19T06:57:59;19.60;;;13.48;;
49177;SDS011;35016;55.674;37.468;2023-09-19T07:00:27;20.20;;;13.48;;
49177;SDS011;35016;55.674;37.468;2023-09-19T07:02:56;15.50;;;13.35;;
49177;SDS011;35016;55.674;37.468;2023-09-19T07:05:28;20.27;;;15.52;;
49177;SDS011;35016;55.674;37.468;2023-09-19T07:07:56;18.30;;;14.85;;
49177;SDS011;35016;55.674;37.468;2023-09-19T07:10:26;18.40;;;14.25;;
49177;SDS011;35016;55.674;37.468;2023-09-19T07:12:56;19.05;;;14.93;;
49177;SDS011;35016;55.674;37.468;2023-09-19T07:15:25;17.83;;;15.38;;
49177;SDS011;35016;55.674;37.468;2023-09-19T07:17:54;18.63;;;14.63;;
49177;SDS011;35016;55.674;37.468;2023-09-19T07:20:23;20.35;;;14.10;;
49177;SDS011;35016;55.674;37.468;2023-09-19T07:22:55;16.60;;;14.52;;
49177;SDS011;35016;55.674;37.468;2023-09-19T07:25:22;20.17;;;15.13;;
49177;SDS011;35016;55.674;37.468;2023-09-19T07:27:49;19.40;;;14.45;;
49177;SDS011;35016;55.674;37.468;2023-09-19T07:30:17;18.48;;;13.90;;
49177;SDS011;35016;55.674;37.468;2023-09-19T07:32:45;19.05;;;13.88;;
49177;SDS011;35016;55.674;37.468;2023-09-19T07:35:12;23.70;;;13.65;;
49177;SDS011;35016;55.674;37.468;2023-09-19T07:37:39;16.88;;;14.40;;
49177;SDS011;35016;55.674;37.468;2023-09-19T07:40:06;18.27;;;14.25;;
49177;SDS011;35016;55.674;37.468;2023-09-19T07:42:36;16.98;;;13.85;;
49177;SDS011;35016;55.674;37.468;2023-09-19T07:45:06;18.45;;;13.43;;
49177;SDS011;35016;55.674;37.468;2023-09-19T07:47:34;19.20;;;15.35;;
49177;SDS011;35016;55.674;37.468;2023-09-19T07:50:03;16.45;;;12.07;;
49177;SDS011;35016;55.674;37.468;2023-09-19T07:52:31;17.95;;;13.73;;
49177;SDS011;35016;55.674;37.468;2023-09-19T07:55:00;17.58;;;12.95;;
49177;SDS011;35016;55.674;37.468;2023-09-19T07:57:33;19.98;;;14.05;;
49177;SDS011;35016;55.674;37.468;2023-09-19T08:00:01;17.63;;;12.80;;
49177;SDS011;35016;55.674;37.468;2023-09-19T08:02:37;19.17;;;12.80;;
49177;SDS011;35016;55.674;37.468;2023-09-19T08:05:06;16.52;;;12.90;;
49177;SDS011;35016;55.674;37.468;2023-09-19T08:07:38;15.83;;;12.47;;
49177;SDS011;35016;55.674;37.468;2023-09-19T08:10:07;16.45;;;13.55;;
49177;SDS011;35016;55.674;37.468;2023-09-19T08:12:35;21.70;;;15.75;;
49177;SDS011;35016;55.674;37.468;2023-09-19T08:15:03;16.35;;;13.55;;
49177;SDS011;35016;55.674;37.468;2023-09-19T08:17:34;18.58;;;12.55;;
49177;SDS011;35016;55.674;37.468;2023-09-19T08:20:02;17.88;;;13.43;;
49177;SDS011;35016;55.674;37.468;2023-09-19T08:22:32;15.45;;;11.70;;
49177;SDS011;35016;55.674;37.468;2023-09-19T08:24:59;19.35;;;11.98;;
49177;SDS011;35016;55.674;37.468;2023-09-19T08:27:31;16.38;;;11.90;;
49177;SDS011;35016;55.674;37.468;2023-09-19T08:29:58;16.45;;;12.70;;
49177;SDS011;35016;55.674;37.468;2023-09-19T08:32:25;18.88;;;12.27;;
49177;SDS011;35016;55.674;37.468;2023-09-19T08:34:54;21.35;;;13.35;;
49177;SDS011;35016;55.674;37.468;2023-09-19T08:37:21;16.73;;;11.88;;
49177;SDS011;35016;55.674;37.468;2023-09-19T08:39:48;19.08;;;13.23;;
49177;SDS011;35016;55.674;37.468;2023-09-19T08:42:16;14.82;;;10.90;;
49177;SDS011;35016;55.674;37.468;2023-09-19T08:44:46;16.92;;;11.25;;
49177;SDS011;35016;55.674;37.468;2023-09-19T08:47:16;16.38;;;12.32;;
49177;SDS011;35016;55.674;37.468;2023-09-19T08:52:43;15.93;;;12.07;;
49177;SDS011;35016;55.674;37.468;2023-09-19T08:55:17;16.85;;;12.50;;
49177;SDS011;35016;55.674;37.468;2023-09-19T08:57:51;15.55;;;11.77;;
49177;SDS011;35016;55.674;37.468;2023-09-19T09:00:21;16.35;;;11.65;;
49177;SDS011;35016;55.674;37.468;2023-09-19T09:02:49;14.70;;;11.35;;
49177;SDS011;35016;55.674;37.468;2023-09-19T09:05:17;17.77;;;12.85;;
49177;SDS011;35016;55.674;37.468;2023-09-19T09:07:50;14.37;;;11.87;;
49177;SDS011;35016;55.674;37.468;2023-09-19T09:10:24;17.60;;;12.40;;
49177;SDS011;35016;55.674;37.468;2023-09-19T09:12:52;17.05;;;12.88;;
49177;SDS011;35016;55.674;37.468;2023-09-19T09:15:23;17.25;;;11.20;;
49177;SDS011;35016;55.674;37.468;2023-09-19T09:17:51;15.27;;;11.10;;
49177;SDS011;35016;55.674;37.468;2023-09-19T09:20:22;14.95;;;11.50;;
49177;SDS011;35016;55.674;37.468;2023-09-19T09:22:53;16.88;;;11.77;;
49177;SDS011;35016;55.674;37.468;2023-09-19T09:25:21;15.98;;;10.13;;
49177;SDS011;35016;55.674;37.468;2023-09-19T09:28:01;16.88;;;11.18;;
49177;SDS011;35016;55.674;37.468;2023-09-19T09:30:32;14.43;;;10.05;;
49177;SDS011;35016;55.674;37.468;2023-09-19T09:33:10;14.48;;;11.68;;
49177;SDS011;35016;55.674;37.468;2023-09-19T09:35:50;16.40;;;10.57;;
49177;SDS011;35016;55.674;37.468;2023-09-19T09:38:30;15.02;;;11.70;;
49177;SDS011;35016;55.674;37.468;2023-09-19T09:41:13;15.70;;;11.25;;
49177;SDS011;35016;55.674;37.468;2023-09-19T09:43:54;13.93;;;10.55;;
49177;SDS011;35016;55.674;37.468;2023-09-19T09:46:21;18.05;;;11.88;;
49177;SDS011;35016;55.674;37.468;2023-09-19T09:48:57;15.23;;;10.55;;
49177;SDS011;35016;55.674;37.468;2023-09-19T09:54:28;15.57;;;11.52;;
49177;SDS011;35016;55.674;37.468;2023-09-19T09:57:06;19.75;;;10.48;;
49177;SDS011;35016;55.674;37.468;2023-09-19T10:02:17;18.38;;;11.13;;
49177;SDS011;35016;55.674;37.468;2023-09-19T10:04:51;15.32;;;11.52;;
49177;SDS011;35016;55.674;37.468;2023-09-19T10:07:40;15.32;;;10.70;;
49177;SDS011;35016;55.674;37.468;2023-09-19T10:10:10;14.95;;;10.40;;
49177;SDS011;35016;55.674;37.468;2023-09-19T10:12:46;12.50;;;10.15;;
49177;SDS011;35016;55.674;37.468;2023-09-19T10:15:16;14.27;;;10.75;;
49177;SDS011;35016;55.674;37.468;2023-09-19T10:17:47;15.60;;;10.90;;
49177;SDS011;35016;55.674;37.468;2023-09-19T10:20:16;14.68;;;9.80;;
49177;SDS011;35016;55.674;37.468;2023-09-19T10:23:00;14.52;;;10.50;;
49177;SDS011;35016;55.674;37.468;2023-09-19T10:25:30;17.45;;;10.88;;
49177;SDS011;35016;55.674;37.468;2023-09-19T10:28:00;12.80;;;9.43;;
49177;SDS011;35016;55.674;37.468;2023-09-19T10:30:35;15.90;;;10.35;;
49177;SDS011;35016;55.674;37.468;2023-09-19T10:33:06;14.98;;;10.68;;
49177;SDS011;35016;55.674;37.468;2023-09-19T10:35:33;14.95;;;9.63;;
49177;SDS011;35016;55.674;37.468;2023-09-19T10:38:07;12.95;;;9.90;;
49177;SDS011;35016;55.674;37.468;2023-09-19T10:40:38;13.35;;;10.95;;
49177;SDS011;35016;55.674;37.468;2023-09-19T10:43:13;14.43;;;10.52;;
49177;SDS011;35016;55.674;37.468;2023-09-19T10:45:45;14.77;;;9.38;;
49177;SDS011;35016;55.674;37.468;2023-09-19T10:48:16;17.83;;;9.88;;
49177;SDS011;35016;55.674;37.468;2023-09-19T10:53:40;12.60;;;9.68;;
49177;SDS011;35016;55.674;37.468;2023-09-19T10:56:09;16.13;;;9.20;;
49177;SDS011;35016;55.674;37.468;2023-09-19T10:58:44;14.63;;;9.88;;
49177;SDS011;35016;55.674;37.468;2023-09-19T11:01:11;14.82;;;10.10;;
49177;SDS011;35016;55.674;37.468;2023-09-19T11:03:41;15.88;;;10.23;;
49177;SDS011;35016;55.674;37.468;2023-09-19T11:09:00;15.85;;;10.57;;
49177;SDS011;35016;55.674;37.468;2023-09-19T11:11:43;14.20;;;8.85;;
49177;SDS011;35016;55.674;37.468;2023-09-19T11:25:46;15.32;;;9.35;;
49177;SDS011;35016;55.674;37.468;2023-09-19T11:30:44;11.95;;;9.00;;
49177;SDS011;35016;55.674;37.468;2023-09-19T11:36:07;13.25;;;9.35;;
49177;SDS011;35016;55.674;37.468;2023-09-19T11:41:36;14.95;;;9.40;;
49177;SDS011;35016;55.674;37.468;2023-09-19T11:46:53;13.10;;;10.25;;
49177;SDS011;35016;55.674;37.468;2023-09-19T11:49:26;16.05;;;10.13;;
49177;SDS011;35016;55.674;37.468;2023-09-19T11:51:57;14.18;;;9.27;;
49177;SDS011;35016;55.674;37.468;2023-09-19T11:54:31;13.65;;;9.40;;
49177;SDS011;35016;55.674;37.468;2023-09-19T11:57:00;12.55;;;8.82;;
49177;SDS011;35016;55.674;37.468;2023-09-19T11:59:28;12.10;;;8.18;;
49177;SDS011;35016;55.674;37.468;2023-09-19T12:02:06;13.70;;;10.98;;
49177;SDS011;35016;55.674;37.468;2023-09-19T12:04:38;13.70;;;9.77;;
49177;SDS011;35016;55.674;37.468;2023-09-19T12:07:11;13.70;;;9.00;;
49177;SDS011;35016;55.674;37.468;2023-09-19T12:12:22;10.93;;;7.35;;
49177;SDS011;35016;55.674;37.468;2023-09-19T12:14:54;10.57;;;7.63;;
49177;SDS011;35016;55.674;37.468;2023-09-19T12:20:03;11.30;;;7.75;;
49177;SDS011;35016;55.674;37.468;2023-09-19T12:22:40;12.15;;;8.15;;
49177;SDS011;35016;55.674;37.468;2023-09-19T12:25:10;11.43;;;7.43;;
49177;SDS011;35016;55.674;37.468;2023-09-19T12:27:45;13.52;;;8.13;;
49177;SDS011;35016;55.674;37.468;2023-09-19T12:30:27;11.98;;;7.55;;
49177;SDS011;35016;55.674;37.468;2023-09-19T12:33:00;10.52;;;6.05;;
49177;SDS011;35016;55.674;37.468;2023-09-19T12:35:31;10.52;;;6.57;;
49177;SDS011;35016;55.674;37.468;2023-09-19T12:38:05;10.02;;;5.55;;
49177;SDS011;35016;55.674;37.468;2023-09-19T12:40:34;9.68;;;5.78;;
49177;SDS011;35016;55.674;37.468;2023-09-19T12:43:06;8.85;;;4.72;;
49177;SDS011;35016;55.674;37.468;2023-09-19T12:45:34;8.98;;;5.00;;
49177;SDS011;35016;55.674;37.468;2023-09-19T12:48:20;10.32;;;5.15;;
49177;SDS011;35016;55.674;37.468;2023-09-19T12:51:06;9.95;;;5.43;;
49177;SDS011;35016;55.674;37.468;2023-09-19T12:53:40;11.25;;;5.57;;
49177;SDS011;35016;55.674;37.468;2023-09-19T12:56:12;9.80;;;5.47;;
49177;SDS011;35016;55.674;37.468;2023-09-19T13:01:16;9.15;;;5.38;;
49177;SDS011;35016;55.674;37.468;2023-09-19T13:03:44;10.45;;;5.50;;
49177;SDS011;35016;55.674;37.468;2023-09-19T13:06:13;10.02;;;6.03;;
49177;SDS011;35016;55.674;37.468;2023-09-19T13:08:43;9.63;;;5.97;;
49177;SDS011;35016;55.674;37.468;2023-09-19T13:11:16;13.45;;;6.53;;
49177;SDS011;35016;55.674;37.468;2023-09-19T13:13:46;9.57;;;5.85;;
49177;SDS011;35016;55.674;37.468;2023-09-19T13:16:22;9.55;;;5.50;;
49177;SDS011;35016;55.674;37.468;2023-09-19T13:18:52;9.45;;;5.43;;
49177;SDS011;35016;55.674;37.468;2023-09-19T13:21:31;10.13;;;5.55;;
49177;SDS011;35016;55.674;37.468;2023-09-19T13:24:21;9.05;;;4.90;;
49177;SDS011;35016;55.674;37.468;2023-09-19T13:26:53;9.38;;;5.28;;
49177;SDS011;35016;55.674;37.468;2023-09-19T13:29:23;9.25;;;5.03;;
49177;SDS011;35016;55.674;37.468;2023-09-19T13:31:50;11.77;;;5.82;;
49177;SDS011;35016;55.674;37.468;2023-09-19T13:34:21;9.43;;;5.28;;
49177;SDS011;35016;55.674;37.468;2023-09-19T13:36:48;15.35;;;6.05;;
49177;SDS011;35016;55.674;37.468;2023-09-19T13:39:16;9.85;;;5.68;;
49177;SDS011;35016;55.674;37.468;2023-09-19T13:41:47;9.88;;;6.57;;
49177;SDS011;35016;55.674;37.468;2023-09-19T13:44:15;11.10;;;6.45;;
49177;SDS011;35016;55.674;37.468;2023-09-19T13:46:44;13.52;;;7.40;;
49177;SDS011;35016;55.674;37.468;2023-09-19T13:49:14;12.40;;;7.70;;
49177;SDS011;35016;55.674;37.468;2023-09-19T13:51:41;15.15;;;8.07;;
49177;SDS011;35016;55.674;37.468;2023-09-19T13:54:11;10.50;;;6.38;;
49177;SDS011;35016;55.674;37.468;2023-09-19T13:56:39;13.35;;;8.50;;
49177;SDS011;35016;55.674;37.468;2023-09-19T13:59:06;13.55;;;7.15;;
49177;SDS011;35016;55.674;37.468;2023-09-19T14:01:37;13.52;;;7.30;;
49177;SDS011;35016;55.674;37.468;2023-09-19T14:04:04;11.50;;;7.47;;
49177;SDS011;35016;55.674;37.468;2023-09-19T14:06:32;13.98;;;7.70;;
49177;SDS011;35016;55.674;37.468;2023-09-19T14:09:00;11.50;;;7.55;;
49177;SDS011;35016;55.674;37.468;2023-09-19T14:11:27;13.70;;;9.27;;
49177;SDS011;35016;55.674;37.468;2023-09-19T14:13:55;13.10;;;7.47;;
49177;SDS011;35016;55.674;37.468;2023-09-19T14:16:23;14.98;;;7.95;;
49177;SDS011;35016;55.674;37.468;2023-09-19T14:18:51;14.55;;;9.13;;
49177;SDS011;35016;55.674;37.468;2023-09-19T14:21:19;15.32;;;9.30;;
49177;SDS011;35016;55.674;37.468;2023-09-19T14:23:46;13.48;;;8.45;;
49177;SDS011;35016;55.674;37.468;2023-09-19T14:26:13;12.02;;;9.10;;
49177;SDS011;35016;55.674;37.468;2023-09-19T14:28:40;13.35;;;8.93;;
49177;SDS011;35016;55.674;37.468;2023-09-19T14:31:10;14.07;;;8.60;;
49177;SDS011;35016;55.674;37.468;2023-09-19T14:33:38;13.48;;;7.97;;
49177;SDS011;35016;55.674;37.468;2023-09-19T14:36:08;15.02;;;9.95;;
49177;SDS011;35016;55.674;37.468;2023-09-19T14:38:37;13.35;;;8.07;;
49177;SDS011;35016;55.674;37.468;2023-09-19T14:41:07;11.60;;;7.93;;
49177;SDS011;35016;55.674;37.468;2023-09-19T14:43:35;10.52;;;7.32;;
49177;SDS011;35016;55.674;37.468;2023-09-19T14:46:03;12.32;;;7.28;;
49177;SDS011;35016;55.674;37.468;2023-09-19T14:48:31;11.40;;;7.28;;
49177;SDS011;35016;55.674;37.468;2023-09-19T14:51:04;12.65;;;7.60;;
49177;SDS011;35016;55.674;37.468;2023-09-19T14:53:36;14.05;;;7.93;;
49177;SDS011;35016;55.674;37.468;2023-09-19T14:56:09;15.57;;;7.88;;
49177;SDS011;35016;55.674;37.468;2023-09-19T14:58:37;12.93;;;7.00;;
49177;SDS011;35016;55.674;37.468;2023-09-19T15:01:09;10.23;;;5.82;;
49177;SDS011;35016;55.674;37.468;2023-09-19T15:03:39;11.07;;;6.53;;
49177;SDS011;35016;55.674;37.468;2023-09-19T15:06:09;12.90;;;6.75;;
49177;SDS011;35016;55.674;37.468;2023-09-19T15:08:41;13.80;;;6.78;;
49177;SDS011;35016;55.674;37.468;2023-09-19T15:11:14;11.30;;;6.55;;
49177;SDS011;35016;55.674;37.468;2023-09-19T15:13:47;10.65;;;5.93;;
49177;SDS011;35016;55.674;37.468;2023-09-19T15:16:17;11.80;;;7.53;;
49177;SDS011;35016;55.674;37.468;2023-09-19T15:18:45;11.13;;;6.30;;
49177;SDS011;35016;55.674;37.468;2023-09-19T15:21:16;12.27;;;7.13;;
49177;SDS011;35016;55.674;37.468;2023-09-19T15:23:44;11.70;;;6.10;;
49177;SDS011;35016;55.674;37.468;2023-09-19T15:26:12;11.70;;;7.10;;
49177;SDS011;35016;55.674;37.468;2023-09-19T15:28:40;12.23;;;6.20;;
49177;SDS011;35016;55.674;37.468;2023-09-19T15:31:09;10.85;;;6.25;;